Time;durP1;ratioP1;P1;durP2;ratioP2;P2;SDS_P1;SDS_P2;PMS_P1;PMS_P2;Temp;Humidity;BMP_temperature;BMP_pressure;BME280_temperature;BME280_humidity;BME280_pressure;Samples;Min_cycle;Max_cycle;Signal;HPM_P1;HPM_P2
2023/05/03 00:01:12;;;;;;;;;;;;;;;5.64;100.00;98070.91;5025807;28;19955;-58
2023/05/03 00:03:39;;;;;;;;;;;;;;;5.68;100.00;98078.31;5028117;28;19924;-58
2023/05/03 00:06:10;;;;;;;;;;;;;;;5.80;100.00;98081.28;5027650;28;19921;-58
2023/05/03 00:08:36;;;;;;;;;;;;;;;5.95;100.00;98082.94;5025569;28;19956;-58
2023/05/03 00:11:02;;;;;;;;;;;;;;;5.96;100.00;98082.75;5028815;28;19967;-56
2023/05/03 00:13:29;;;;;;;;;;;;;;;5.90;100.00;98083.53;5025321;28;19987;-57
2023/05/03 00:15:55;;;;;;;;;;;;;;;5.94;100.00;98092.84;5027855;28;19974;-56
2023/05/03 00:18:22;;;;;;;;;;;;;;;5.83;100.00;98086.22;5025517;28;20028;-57
2023/05/03 00:20:50;;;;;;;;;;;;;;;5.94;100.00;98083.97;5027200;28;19921;-56
2023/05/03 00:23:16;;;;;;;;;;;;;;;6.09;100.00;98089.19;5026499;28;20368;-56
2023/05/03 00:25:43;;;;;;;;;;;;;;;6.24;100.00;98086.31;5024081;28;21005;-58
2023/05/03 00:28:09;;;;;;;;;;;;;;;6.30;100.00;98074.72;5032914;28;19920;-56
2023/05/03 00:30:36;;;;;;;;;;;;;;;6.26;100.00;98070.78;5023326;28;20343;-57
2023/05/03 00:33:02;;;;;;;;;;;;;;;6.28;100.00;98070.59;5028315;28;20016;-58
2023/05/03 00:35:29;;;;;;;;;;;;;;;6.33;100.00;98068.09;5025317;28;19925;-58
2023/05/03 00:37:55;;;;;;;;;;;;;;;6.38;100.00;98061.06;5024884;28;19921;-58
2023/05/03 00:40:21;;;;;;;;;;;;;;;6.41;100.00;98062.50;5027229;28;19925;-58
2023/05/03 00:42:49;;;;;;;;;;;;;;;6.45;100.00;98062.94;5026870;28;19975;-58
2023/05/03 00:45:15;;;;;;;;;;;;;;;6.51;100.00;98059.41;5024553;28;19952;-58
2023/05/03 00:47:42;;;;;;;;;;;;;;;6.54;100.00;98052.78;5025660;28;19995;-59
2023/05/03 00:50:10;;;;;;;;;;;;;;;6.72;100.00;98046.75;5024702;28;19944;-59
2023/05/03 00:52:38;;;;;;;;;;;;;;;6.65;100.00;98044.06;5024534;28;19956;-58
2023/05/03 00:55:07;;;;;;;;;;;;;;;6.73;100.00;98046.53;5025779;28;20358;-59
2023/05/03 00:57:33;;;;;;;;;;;;;;;6.91;100.00;98039.66;5025277;28;20456;-59
2023/05/03 01:00:00;;;;;;;;;;;;;;;7.01;100.00;98045.41;5019087;28;19925;-59
2023/05/03 01:02:27;;;;;;;;;;;;;;;6.81;100.00;98047.38;5024085;28;20367;-59
2023/05/03 01:04:54;;;;;;;;;;;;;;;6.45;100.00;98041.41;5023418;28;20412;-59
2023/05/03 01:07:44;;;;;;;;;;;;;;;6.23;100.00;98038.94;5023590;28;20035;-59
2023/05/03 01:10:13;;;;;;;;;;;;;;;5.76;100.00;98053.16;5026095;28;20380;-58
2023/05/03 01:12:46;;;;;;;;;;;;;;;5.52;100.00;98047.28;5025803;28;19956;-59
2023/05/03 01:15:23;;;;;;;;;;;;;;;5.54;100.00;98050.63;5020447;28;19971;-59
2023/05/03 01:17:53;;;;;;;;;;;;;;;5.51;100.00;98052.88;5018565;28;19991;-59
2023/05/03 01:20:23;;;;;;;;;;;;;;;5.62;100.00;98052.28;5023605;28;19928;-59
2023/05/03 01:23:04;;;;;;;;;;;;;;;5.43;100.00;98049.34;5025709;28;20469;-59
2023/05/03 01:25:30;;;;;;;;;;;;;;;5.43;100.00;98051.19;5029275;28;19925;-58
2023/05/03 01:27:57;;;;;;;;;;;;;;;5.39;100.00;98049.94;5023549;28;20502;-58
2023/05/03 01:30:25;;;;;;;;;;;;;;;5.36;100.00;98050.34;5025150;28;19927;-56
2023/05/03 01:33:09;;;;;;;;;;;;;;;5.33;100.00;98044.34;5025163;28;19924;-58
2023/05/03 01:35:40;;;;;;;;;;;;;;;5.33;100.00;98049.72;5024026;28;19933;-58
2023/05/03 01:38:07;;;;;;;;;;;;;;;5.41;100.00;98047.88;5022888;28;19956;-57
2023/05/03 01:40:37;;;;;;;;;;;;;;;5.44;100.00;98034.03;5025151;28;20603;-55
2023/05/03 01:43:04;;;;;;;;;;;;;;;5.44;100.00;98034.03;5010042;28;19921;-58
2023/05/03 01:45:30;;;;;;;;;;;;;;;5.45;100.00;98033.00;5023269;28;20017;-57
2023/05/03 01:47:57;;;;;;;;;;;;;;;5.41;100.00;98029.06;5023320;28;19975;-57
2023/05/03 01:50:23;;;;;;;;;;;;;;;5.34;100.00;98031.72;5022181;28;19925;-56
2023/05/03 01:52:51;;;;;;;;;;;;;;;5.18;100.00;98038.28;5024154;28;19928;-59
2023/05/03 01:55:17;;;;;;;;;;;;;;;5.08;100.00;98034.13;5023534;28;20434;-59
2023/05/03 01:57:44;;;;;;;;;;;;;;;5.11;100.00;98037.44;5021742;28;20400;-59
2023/05/03 02:00:11;;;;;;;;;;;;;;;5.16;100.00;98030.44;5024025;28;20435;-59
2023/05/03 02:02:39;;;;;;;;;;;;;;;5.09;100.00;98037.66;5023557;28;19947;-59
2023/05/03 02:05:06;;;;;;;;;;;;;;;4.95;100.00;98034.06;5025041;28;19927;-58
2023/05/03 02:07:32;;;;;;;;;;;;;;;4.99;100.00;98042.53;5022172;28;20023;-58
2023/05/03 02:09:59;;;;;;;;;;;;;;;4.90;100.00;98039.22;5024095;28;19927;-58
2023/05/03 02:12:26;;;;;;;;;;;;;;;4.95;100.00;98034.88;5017686;28;19944;-57
2023/05/03 02:14:52;;;;;;;;;;;;;;;4.83;100.00;98036.47;5023231;28;19971;-58
2023/05/03 02:17:19;;;;;;;;;;;;;;;4.79;100.00;98033.38;5019394;28;20360;-55
2023/05/03 02:19:46;;;;;;;;;;;;;;;4.68;100.00;98031.22;5019381;28;19932;-56
2023/05/03 02:22:12;;;;;;;;;;;;;;;4.75;100.00;98028.63;5022762;28;20374;-58
2023/05/03 02:24:38;;;;;;;;;;;;;;;4.67;100.00;98032.25;5028711;28;19921;-56
2023/05/03 02:27:05;;;;;;;;;;;;;;;4.58;100.00;98025.41;5021362;28;19979;-56
2023/05/03 02:29:32;;;;;;;;;;;;;;;4.60;100.00;98029.53;5020565;28;19983;-58
2023/05/03 02:32:00;;;;;;;;;;;;;;;4.64;100.00;98024.63;5023372;28;19927;-57
2023/05/03 02:34:26;;;;;;;;;;;;;;;4.49;100.00;98022.88;5022165;28;19929;-56
2023/05/03 02:36:53;;;;;;;;;;;;;;;4.54;100.00;98015.06;5022895;28;19967;-57
2023/05/03 02:39:20;;;;;;;;;;;;;;;4.61;100.00;98023.16;5021736;28;19957;-58
2023/05/03 02:41:46;;;;;;;;;;;;;;;4.46;100.00;98015.22;5016011;28;20401;-58
2023/05/03 02:44:13;;;;;;;;;;;;;;;4.51;100.00;98020.00;5020482;28;19971;-58
2023/05/03 02:46:40;;;;;;;;;;;;;;;4.38;100.00;98020.72;5024986;28;19979;-59
2023/05/03 02:49:08;;;;;;;;;;;;;;;4.24;100.00;98019.81;5023159;28;19921;-58
2023/05/03 02:51:35;;;;;;;;;;;;;;;4.30;100.00;98024.41;5018129;28;20524;-58
2023/05/03 02:54:01;;;;;;;;;;;;;;;4.29;100.00;98020.91;5018911;28;19921;-58
2023/05/03 02:56:27;;;;;;;;;;;;;;;4.26;100.00;98015.94;5023371;28;20404;-58
2023/05/03 02:58:54;;;;;;;;;;;;;;;4.10;100.00;98018.88;5020511;28;19925;-58
2023/05/03 03:01:21;;;;;;;;;;;;;;;4.05;100.00;98021.31;5022713;28;19921;-57
2023/05/03 03:03:48;;;;;;;;;;;;;;;4.03;100.00;98019.66;5023390;28;19944;-58
2023/05/03 03:06:15;;;;;;;;;;;;;;;4.02;100.00;98026.03;5018725;28;19924;-58
2023/05/03 03:08:41;;;;;;;;;;;;;;;3.87;100.00;98026.13;5021695;28;19967;-58
2023/05/03 03:11:08;;;;;;;;;;;;;;;3.82;100.00;98028.56;5022018;28;19921;-59
2023/05/03 03:13:38;;;;;;;;;;;;;;;3.87;100.00;98027.97;5020780;28;19932;-59
2023/05/03 03:16:05;;;;;;;;;;;;;;;3.86;100.00;98029.81;5021786;28;20007;-59
2023/05/03 03:18:33;;;;;;;;;;;;;;;3.79;100.00;98018.22;5016542;28;19928;-57
2023/05/03 03:21:01;;;;;;;;;;;;;;;3.69;100.00;98026.56;5021536;28;19963;-58
2023/05/03 03:23:27;;;;;;;;;;;;;;;3.63;100.00;98024.66;5021039;28;20344;-56
2023/05/03 03:25:54;;;;;;;;;;;;;;;3.69;100.00;98029.22;5026914;28;19928;-58
2023/05/03 03:28:20;;;;;;;;;;;;;;;3.70;100.00;98025.56;5012439;28;19956;-57
2023/05/03 03:30:48;;;;;;;;;;;;;;;3.62;100.00;98025.69;5012738;28;19956;-58
2023/05/03 03:33:20;;;;;;;;;;;;;;;3.51;100.00;98037.72;5013892;28;19925;-56
2023/05/03 03:35:52;;;;;;;;;;;;;;;3.57;100.00;98036.16;5007932;28;20019;-56
2023/05/03 03:38:22;;;;;;;;;;;;;;;3.43;100.00;98037.84;5010021;28;19948;-55
2023/05/03 03:40:55;;;;;;;;;;;;;;;3.50;100.00;98042.25;5016435;28;19925;-58
2023/05/03 03:43:22;;;;;;;;;;;;;;;3.57;100.00;98041.50;5030421;28;20312;-57
2023/05/03 03:45:49;;;;;;;;;;;;;;;3.72;100.00;98044.94;5023912;28;20435;-58
2023/05/03 03:48:16;;;;;;;;;;;;;;;3.83;100.00;98051.63;5012342;28;19968;-58
2023/05/03 03:50:42;;;;;;;;;;;;;;;3.87;100.00;98041.38;5024919;28;20304;-59
2023/05/03 03:53:11;;;;;;;;;;;;;;;3.93;100.00;98050.47;5021919;28;20404;-59
2023/05/03 03:55:39;;;;;;;;;;;;;;;4.05;100.00;98054.28;5021197;28;19928;-58
2023/05/03 03:58:06;;;;;;;;;;;;;;;4.07;100.00;98051.44;5011104;28;19965;-59
2023/05/03 04:00:32;;;;;;;;;;;;;;;4.05;100.00;98048.13;5023105;28;21145;-59
2023/05/03 04:03:05;;;;;;;;;;;;;;;4.04;100.00;98044.59;5015743;28;19925;-60
2023/05/03 04:05:33;;;;;;;;;;;;;;;4.11;100.00;98053.53;5009417;28;20308;-59
2023/05/03 04:08:00;;;;;;;;;;;;;;;4.22;100.00;98051.34;5016596;28;19935;-59
2023/05/03 04:10:29;;;;;;;;;;;;;;;4.34;100.00;98054.31;5014984;28;20016;-57
2023/05/03 04:12:55;;;;;;;;;;;;;;;4.53;100.00;98061.69;5015354;28;20495;-58
2023/05/03 04:15:22;;;;;;;;;;;;;;;4.78;100.00;98063.91;5011823;28;19930;-57
2023/05/03 04:17:49;;;;;;;;;;;;;;;4.75;100.00;98064.31;5007330;28;19944;-58
2023/05/03 04:20:16;;;;;;;;;;;;;;;5.00;100.00;98058.47;5017358;28;19926;-56
2023/05/03 04:22:46;;;;;;;;;;;;;;;5.02;100.00;98061.75;5020240;28;19924;-59
2023/05/03 04:25:15;;;;;;;;;;;;;;;4.91;100.00;98056.97;5023774;28;20008;-59
2023/05/03 04:27:47;;;;;;;;;;;;;;;4.88;100.00;98062.72;5018559;28;19924;-59
2023/05/03 04:30:16;;;;;;;;;;;;;;;5.00;100.00;98065.66;5019525;28;19929;-60
2023/05/03 04:32:46;;;;;;;;;;;;;;;5.33;100.00;98065.84;5015529;28;19921;-58
2023/05/03 04:35:14;;;;;;;;;;;;;;;5.51;100.00;98064.44;5016501;28;19932;-59
2023/05/03 04:37:45;;;;;;;;;;;;;;;5.50;100.00;98064.66;5016029;28;19921;-60
2023/05/03 04:40:16;;;;;;;;;;;;;;;5.65;100.00;98061.78;5014052;28;20385;-59
2023/05/03 04:42:47;;;;;;;;;;;;;;;5.79;100.00;98063.47;5019520;28;19921;-59
2023/05/03 04:45:14;;;;;;;;;;;;;;;5.91;100.00;98061.03;5023093;28;19925;-58
2023/05/03 04:47:40;;;;;;;;;;;;;;;5.97;100.00;98067.44;5025734;28;20511;-58
2023/05/03 04:50:09;;;;;;;;;;;;;;;6.14;100.00;98073.28;5023289;28;19960;-59
2023/05/03 04:52:38;;;;;;;;;;;;;;;6.19;100.00;98067.28;5024648;28;19929;-59
2023/05/03 04:55:05;;;;;;;;;;;;;;;6.28;100.00;98060.66;5019330;28;20383;-58
2023/05/03 04:57:32;;;;;;;;;;;;;;;6.40;100.00;98060.88;5016128;28;20364;-59
2023/05/03 04:59:59;;;;;;;;;;;;;;;6.39;100.00;98064.59;5022735;28;19924;-58
2023/05/03 05:02:26;;;;;;;;;;;;;;;6.48;100.00;98066.03;5019765;28;19931;-59
2023/05/03 05:04:53;;;;;;;;;;;;;;;6.53;100.00;98069.97;5020310;28;20115;-57
2023/05/03 05:07:20;;;;;;;;;;;;;;;6.50;100.00;98063.94;5013045;28;19925;-57
2023/05/03 05:09:46;;;;;;;;;;;;;;;6.63;100.00;98071.19;5017475;28;19921;-58
2023/05/03 05:12:13;;;;;;;;;;;;;;;6.74;100.00;98074.28;5013978;28;19921;-58
2023/05/03 05:14:41;;;;;;;;;;;;;;;6.72;100.00;98070.97;5013615;28;19925;-58
2023/05/03 05:17:08;;;;;;;;;;;;;;;6.68;100.00;98075.13;5012815;28;19990;-59
2023/05/03 05:19:34;;;;;;;;;;;;;;;6.66;100.00;98069.13;5016560;28;20032;-58
2023/05/03 05:22:01;;;;;;;;;;;;;;;6.62;100.00;98072.25;5021554;28;20448;-58
2023/05/03 05:24:38;;;;;;;;;;;;;;;6.69;100.00;98072.22;5015171;28;19929;-58
2023/05/03 05:27:05;;;;;;;;;;;;;;;6.73;100.00;98068.06;5012916;28;19975;-58
2023/05/03 05:29:32;;;;;;;;;;;;;;;6.77;100.00;98071.16;5015425;28;19932;-58
2023/05/03 05:32:01;;;;;;;;;;;;;;;6.85;100.00;98078.19;5013437;28;20293;-59
2023/05/03 05:34:29;;;;;;;;;;;;;;;6.93;100.00;98080.66;5008989;28;19971;-58
2023/05/03 05:37:07;;;;;;;;;;;;;;;6.93;100.00;98080.66;5014167;28;19921;-55
2023/05/03 05:39:34;;;;;;;;;;;;;;;6.92;100.00;98078.19;5017850;28;19925;-58
2023/05/03 05:42:01;;;;;;;;;;;;;;;6.91;100.00;98074.66;5012438;28;19930;-57
2023/05/03 05:44:29;;;;;;;;;;;;;;;6.96;100.00;98071.34;5010673;28;20022;-57
2023/05/03 05:46:55;;;;;;;;;;;;;;;6.98;100.00;98072.78;5014878;28;19929;-57
2023/05/03 05:49:23;;;;;;;;;;;;;;;7.05;100.00;98067.38;5013838;28;20019;-57
2023/05/03 05:51:49;;;;;;;;;;;;;;;6.85;100.00;98070.09;5021077;28;19925;-57
2023/05/03 05:54:16;;;;;;;;;;;;;;;7.08;100.00;98075.03;5021077;28;20043;-58
2023/05/03 05:56:43;;;;;;;;;;;;;;;7.13;100.00;98077.94;5016861;28;19928;-58
2023/05/03 05:59:10;;;;;;;;;;;;;;;7.05;100.00;98071.94;5022404;28;19932;-57
2023/05/03 06:01:40;;;;;;;;;;;;;;;7.12;100.00;98075.44;5020351;28;19925;-59
2023/05/03 06:04:07;;;;;;;;;;;;;;;7.14;100.00;98073.34;5020252;28;19967;-58
2023/05/03 06:06:34;;;;;;;;;;;;;;;7.35;100.00;98080.34;5026086;28;19956;-59
2023/05/03 06:09:01;;;;;;;;;;;;;;;7.40;100.00;98083.22;5019691;28;19925;-59
2023/05/03 06:11:42;;;;;;;;;;;;;;;7.59;100.00;98077.94;5019276;28;19925;-58
2023/05/03 06:14:11;;;;;;;;;;;;;;;7.76;100.00;98074.75;5018503;28;19929;-58
2023/05/03 06:16:38;;;;;;;;;;;;;;;7.64;100.00;98072.75;5017353;28;20040;-59
2023/05/03 06:19:05;;;;;;;;;;;;;;;7.80;100.00;98076.78;5017099;28;20392;-59
2023/05/03 06:21:31;;;;;;;;;;;;;;;7.88;100.00;98075.69;5012885;28;19975;-60
2023/05/03 06:23:59;;;;;;;;;;;;;;;7.94;100.00;98080.25;5026153;28;19947;-59
2023/05/03 06:26:27;;;;;;;;;;;;;;;8.09;100.00;98076.41;5021933;28;19932;-59
2023/05/03 06:28:53;;;;;;;;;;;;;;;8.30;99.23;98079.78;5019684;28;19929;-59
2023/05/03 06:31:20;;;;;;;;;;;;;;;8.51;99.31;98080.44;5018864;28;19928;-58
2023/05/03 06:33:47;;;;;;;;;;;;;;;8.50;98.87;98084.16;5019512;28;19931;-57
2023/05/03 06:36:14;;;;;;;;;;;;;;;8.68;96.98;98086.97;5017561;28;19925;-57
2023/05/03 06:38:41;;;;;;;;;;;;;;;8.77;97.45;98078.59;5015873;28;19920;-58
2023/05/03 06:41:07;;;;;;;;;;;;;;;8.97;94.81;98086.47;5023113;28;19964;-58
2023/05/03 06:43:33;;;;;;;;;;;;;;;8.95;94.65;98085.84;5021670;28;19944;-59
2023/05/03 06:46:02;;;;;;;;;;;;;;;8.92;94.43;98087.13;5019826;28;20446;-58
2023/05/03 06:48:28;;;;;;;;;;;;;;;9.05;95.38;98086.19;5021512;28;19924;-57
2023/05/03 06:50:55;;;;;;;;;;;;;;;8.84;95.40;98082.84;5023288;28;19972;-58
2023/05/03 06:53:21;;;;;;;;;;;;;;;8.94;95.35;98079.66;5024983;28;19974;-59
2023/05/03 06:55:48;;;;;;;;;;;;;;;9.18;93.83;98074.38;5025257;28;19949;-59
2023/05/03 06:58:15;;;;;;;;;;;;;;;9.22;95.33;98078.28;5022209;28;19928;-59
2023/05/03 07:00:42;;;;;;;;;;;;;;;9.05;94.73;98074.53;5024274;28;19921;-59
2023/05/03 07:03:08;;;;;;;;;;;;;;;9.07;95.03;98073.25;5025129;28;20448;-60
2023/05/03 07:05:35;;;;;;;;;;;;;;;9.24;95.85;98076.19;5016281;28;19929;-59
2023/05/03 07:08:02;;;;;;;;;;;;;;;9.40;96.58;98067.72;5013227;28;19921;-59
2023/05/03 07:10:29;;;;;;;;;;;;;;;9.27;96.27;98066.81;5016837;28;19935;-58
2023/05/03 07:12:57;;;;;;;;;;;;;;;9.30;95.82;98068.25;5022020;28;20396;-57
2023/05/03 07:15:23;;;;;;;;;;;;;;;9.56;94.09;98071.66;5020762;28;19935;-57
2023/05/03 07:17:50;;;;;;;;;;;;;;;9.82;92.85;98072.34;5023884;28;20011;-57
2023/05/03 07:20:16;;;;;;;;;;;;;;;9.80;93.04;98071.78;5017819;28;20470;-59
2023/05/03 07:22:43;;;;;;;;;;;;;;;9.91;92.25;98068.25;5013134;28;19925;-60
2023/05/03 07:25:11;;;;;;;;;;;;;;;10.35;90.92;98068.00;5016891;28;20019;-58
2023/05/03 07:27:37;;;;;;;;;;;;;;;9.95;91.67;98061.34;5012923;28;19933;-57
2023/05/03 07:30:04;;;;;;;;;;;;;;;10.42;88.55;98059.78;5019337;28;20011;-57
2023/05/03 07:32:31;;;;;;;;;;;;;;;10.48;89.85;98052.63;5017461;28;20602;-57
2023/05/03 07:34:57;;;;;;;;;;;;;;;11.04;87.77;98055.81;5015702;28;19929;-56
2023/05/03 07:37:25;;;;;;;;;;;;;;;11.18;83.15;98058.25;5020509;28;19929;-61
2023/05/03 07:39:52;;;;;;;;;;;;;;;10.26;88.85;98056.72;5023150;28;19980;-59
2023/05/03 07:42:19;;;;;;;;;;;;;;;10.35;89.44;98049.06;5023145;28;19931;-61
2023/05/03 07:44:45;;;;;;;;;;;;;;;10.18;90.92;98065.19;5022589;28;20392;-61
2023/05/03 07:47:12;;;;;;;;;;;;;;;9.97;91.11;98051.13;5019173;28;20034;-58
2023/05/03 07:49:38;;;;;;;;;;;;;;;10.38;91.05;98055.88;5022453;28;20016;-57
2023/05/03 07:52:04;;;;;;;;;;;;;;;10.50;90.24;98056.75;5024277;28;19983;-52
2023/05/03 07:54:31;;;;;;;;;;;;;;;10.32;90.91;98049.53;5022484;28;20368;-57
2023/05/03 07:56:57;;;;;;;;;;;;;;;10.51;89.06;98049.47;5002625;28;19940;-57
2023/05/03 07:59:24;;;;;;;;;;;;;;;10.71;89.51;98042.84;5006056;28;20355;-58
2023/05/03 08:01:50;;;;;;;;;;;;;;;11.08;86.82;98052.59;5017664;28;19971;-57
2023/05/03 08:04:16;;;;;;;;;;;;;;;11.38;83.50;98046.16;5023398;28;19929;-58
2023/05/03 08:06:43;;;;;;;;;;;;;;;11.64;82.58;98047.50;5022143;28;19932;-59
2023/05/03 08:09:10;;;;;;;;;;;;;;;11.54;82.89;98048.13;5016814;28;19961;-58
2023/05/03 08:11:37;;;;;;;;;;;;;;;11.66;84.00;98049.97;5010653;28;20603;-62
2023/05/03 08:14:03;;;;;;;;;;;;;;;11.84;83.00;98048.94;5003867;28;19926;-61
2023/05/03 08:16:29;;;;;;;;;;;;;;;11.89;82.43;98050.91;5015251;28;19929;-59
2023/05/03 08:18:56;;;;;;;;;;;;;;;11.90;81.20;98042.53;5017117;28;19931;-60
2023/05/03 08:21:23;;;;;;;;;;;;;;;11.49;82.39;98045.31;5021141;28;19925;-60
2023/05/03 08:23:50;;;;;;;;;;;;;;;11.80;83.71;98048.59;5026072;28;20414;-60
2023/05/03 08:26:16;;;;;;;;;;;;;;;11.67;83.53;98049.72;5012913;28;19928;-60
2023/05/03 08:28:43;;;;;;;;;;;;;;;11.74;83.53;98054.16;5020739;28;19928;-60
2023/05/03 08:31:09;;;;;;;;;;;;;;;11.68;82.04;98048.66;5022755;28;19929;-59
2023/05/03 08:33:36;;;;;;;;;;;;;;;11.68;83.60;98042.41;5012807;28;20388;-57
2023/05/03 08:36:02;;;;;;;;;;;;;;;11.71;83.72;98039.19;5013062;28;19925;-59
2023/05/03 08:38:29;;;;;;;;;;;;;;;11.94;83.91;98045.59;5014520;28;19979;-59
2023/05/03 08:40:58;;;;;;;;;;;;;;;11.69;84.54;98047.56;5020005;28;20000;-59
2023/05/03 08:43:26;;;;;;;;;;;;;;;11.84;85.97;98052.47;5022318;28;20558;-59
2023/05/03 08:45:52;;;;;;;;;;;;;;;12.08;83.10;98060.53;5017026;28;19980;-59
2023/05/03 08:48:19;;;;;;;;;;;;;;;12.28;83.25;98055.69;5021249;28;19931;-59
2023/05/03 08:50:47;;;;;;;;;;;;;;;12.23;82.24;98059.13;5017275;28;19924;-60
2023/05/03 08:53:14;;;;;;;;;;;;;;;12.00;82.42;98062.78;5015045;28;19928;-59
2023/05/03 08:55:41;;;;;;;;;;;;;;;11.95;83.45;98064.31;5020137;28;19977;-60
2023/05/03 08:58:11;;;;;;;;;;;;;;;12.06;83.78;98065.38;5022138;28;19932;-59
2023/05/03 09:00:40;;;;;;;;;;;;;;;12.34;81.88;98062.84;5020856;28;20396;-58
2023/05/03 09:03:06;;;;;;;;;;;;;;;12.16;82.45;98061.19;5021524;28;19924;-57
2023/05/03 09:05:34;;;;;;;;;;;;;;;12.04;82.72;98055.78;5013063;28;20708;-58
2023/05/03 09:08:53;;;;;;;16.90;9.38;;;;;;;11.78;85.43;98058.03;5060791;27;20402;-58
2023/05/03 09:11:26;;;;;;;15.55;10.55;;;;;;;12.08;84.97;98054.25;5059578;28;20076;-57
2023/05/03 09:13:53;;;;;;;14.30;9.52;;;;;;;12.47;80.87;98054.38;5058969;28;20055;-59
2023/05/03 09:16:23;;;;;;;13.43;9.55;;;;;;;12.44;82.39;98052.16;5057419;28;20581;-59
2023/05/03 09:19:00;;;;;;;16.15;10.25;;;;;;;12.45;81.56;98050.25;5050819;28;20036;-58
2023/05/03 09:21:28;;;;;;;13.82;9.93;;;;;;;12.50;82.89;98053.06;5060470;28;20504;-58
2023/05/03 09:23:54;;;;;;;15.68;10.35;;;;;;;12.49;82.51;98044.09;5058768;28;20497;-58
2023/05/03 09:26:32;;;;;;;16.17;9.77;;;;;;;12.77;82.15;98043.38;5054968;28;20040;-58
2023/05/03 09:29:03;;;;;;;15.27;9.95;;;;;;;12.98;80.81;98049.94;5058565;28;20041;-58
2023/05/03 09:31:31;;;;;;;14.15;9.73;;;;;;;12.92;79.04;98046.34;5054019;28;20071;-58
2023/05/03 09:33:59;;;;;;;15.50;9.63;;;;;;;12.99;79.75;98052.41;5057643;28;20653;-59
2023/05/03 09:36:26;;;;;;;18.00;10.80;;;;;;;12.90;79.75;98043.03;5055908;28;20702;-59
2023/05/03 09:38:54;;;;;;;15.52;9.95;;;;;;;13.16;79.50;98048.00;5056843;28;20041;-59
2023/05/03 09:41:28;;;;;;;14.88;10.70;;;;;;;13.21;77.81;98048.88;5056018;28;20045;-59
2023/05/03 09:44:01;;;;;;;16.65;9.90;;;;;;;13.14;77.98;98049.06;5054297;28;20056;-59
2023/05/03 09:46:29;;;;;;;16.63;10.15;;;;;;;13.13;78.14;98043.88;5053691;28;20150;-58
2023/05/03 09:48:57;;;;;;;15.15;10.05;;;;;;;13.31;77.25;98052.81;5053214;28;20056;-56
2023/05/03 09:51:23;;;;;;;14.77;9.45;;;;;;;13.64;76.32;98049.13;5061909;28;20044;-59
2023/05/03 09:53:50;;;;;;;15.80;9.68;;;;;;;13.62;76.04;98040.41;5063529;28;20040;-59
2023/05/03 09:56:19;;;;;;;14.82;9.40;;;;;;;13.94;74.45;98043.44;5055863;28;20595;-58
2023/05/03 09:58:46;;;;;;;13.05;8.55;;;;;;;14.09;73.79;98054.50;5054301;28;20127;-59
2023/05/03 10:01:14;;;;;;;13.68;8.77;;;;;;;14.43;72.26;98048.78;5064625;28;20049;-59
2023/05/03 10:03:42;;;;;;;15.50;8.98;;;;;;;14.38;70.52;98046.00;5051244;28;20454;-56
2023/05/03 10:06:29;;;;;;;13.38;8.70;;;;;;;14.38;71.87;98046.00;5069266;28;20047;-58
2023/05/03 10:09:19;;;;;;;13.63;9.05;;;;;;;14.46;71.57;98042.00;5066606;28;20040;-57
2023/05/03 10:11:57;;;;;;;14.05;9.07;;;;;;;14.27;70.34;98047.81;5057586;28;20068;-57
2023/05/03 10:14:24;;;;;;;12.85;9.70;;;;;;;14.24;71.37;98039.34;5048964;28;20046;-57
2023/05/03 10:17:25;;;;;;;12.32;8.55;;;;;;;14.07;71.53;98043.03;5057044;28;20045;-57
2023/05/03 10:20:30;;;;;;;10.98;7.95;;;;;;;13.86;71.50;98044.75;5038442;28;20120;-57
2023/05/03 10:23:03;;;;;;;13.18;7.70;;;;;;;14.22;71.11;98041.53;5040976;28;20532;-58
2023/05/03 10:25:30;;;;;;;15.77;8.60;;;;;;;14.12;69.25;98043.06;5048900;28;20041;-58
2023/05/03 10:28:04;;;;;;;13.85;7.50;;;;;;;14.24;69.62;98042.09;5051000;28;20136;-59
2023/05/03 10:30:34;;;;;;;12.30;9.20;;;;;;;14.22;68.04;98033.38;5053161;28;20796;-59
2023/05/03 10:33:13;;;;;;;14.15;8.45;;;;;;;14.35;68.66;98034.81;5038955;28;20044;-60
2023/05/03 10:35:47;;;;;;;13.90;8.45;;;;;;;14.47;68.83;98024.56;5042637;28;20090;-59
2023/05/03 10:38:22;;;;;;;9.88;6.70;;;;;;;14.90;67.99;98024.59;5046972;28;20044;-60
2023/05/03 10:40:49;;;;;;;13.88;8.40;;;;;;;15.02;67.30;98012.63;5040640;28;20098;-59
2023/05/03 10:43:28;;;;;;;13.32;8.25;;;;;;;15.05;67.24;98015.69;5039858;28;20044;-58
2023/05/03 10:46:05;;;;;;;16.13;9.10;;;;;;;15.38;64.22;98011.97;5043849;28;20048;-59
2023/05/03 10:48:33;;;;;;;12.05;8.25;;;;;;;15.63;65.26;98010.41;5050245;28;20508;-60
2023/05/03 10:51:25;;;;;;;10.75;7.80;;;;;;;15.96;63.94;98008.31;5053602;28;20073;-59
2023/05/03 10:53:52;;;;;;;12.02;8.00;;;;;;;15.94;62.59;98002.25;5045005;28;20041;-59
2023/05/03 10:56:18;;;;;;;8.80;6.45;;;;;;;16.14;62.45;98001.47;5044556;28;20084;-59
2023/05/03 10:58:48;;;;;;;12.77;6.40;;;;;;;16.22;59.86;98008.31;5037002;28;20033;-59
2023/05/03 11:01:17;;;;;;;11.65;7.57;;;;;;;16.37;61.12;97999.31;5040714;28;20055;-59
2023/05/03 11:03:53;;;;;;;11.32;8.00;;;;;;;16.24;62.08;97987.84;5040822;28;20053;-60
2023/05/03 11:06:34;;;;;;;12.18;7.60;;;;;;;15.94;63.68;97992.19;5043588;28;20123;-59
2023/05/03 11:09:08;;;;;;;12.70;7.38;;;;;;;15.88;62.95;97986.97;5039731;28;20685;-60
2023/05/03 11:11:38;;;;;;;12.18;7.90;;;;;;;15.99;61.47;97980.44;5046227;28;20051;-58
2023/05/03 11:14:05;;;;;;;11.93;7.38;;;;;;;15.88;62.03;97979.59;5047255;28;20041;-58
2023/05/03 11:16:31;;;;;;;12.23;7.63;;;;;;;15.98;61.98;97968.72;5042895;28;20049;-58
2023/05/03 11:19:01;;;;;;;10.45;7.05;;;;;;;15.88;58.81;97979.59;5041990;28;20546;-60
2023/05/03 11:21:28;;;;;;;13.15;8.55;;;;;;;15.86;59.94;97974.38;5046215;28;20472;-58
2023/05/03 11:23:57;;;;;;;8.77;6.25;;;;;;;15.98;57.14;97971.44;5044602;28;20638;-59
2023/05/03 11:26:25;;;;;;;9.98;5.57;;;;;;;16.31;57.34;97968.41;5044990;28;20112;-58
2023/05/03 11:28:53;;;;;;;9.70;5.95;;;;;;;16.52;57.27;97963.72;5044064;28;20033;-59
2023/05/03 11:31:20;;;;;;;11.25;7.25;;;;;;;16.37;58.04;97966.50;5037870;28;20049;-58
2023/05/03 11:33:48;;;;;;;10.10;7.30;;;;;;;16.19;57.53;97968.72;5038868;28;20053;-59
2023/05/03 11:36:15;;;;;;;10.30;6.65;;;;;;;15.81;60.34;97968.13;5046402;28;20068;-59
2023/05/03 11:38:41;;;;;;;9.68;6.50;;;;;;;15.92;57.58;97967.03;5049559;28;20037;-59
2023/05/03 11:41:13;;;;;;;9.15;6.50;;;;;;;16.16;56.88;97973.88;5050505;28;20048;-58
2023/05/03 11:43:45;;;;;;;10.10;6.35;;;;;;;16.16;56.41;97960.22;5053098;28;20072;-59
2023/05/03 11:46:21;;;;;;;7.55;4.97;;;;;;;16.14;52.98;97960.50;5050911;28;20052;-59
2023/05/03 11:48:48;;;;;;;10.73;6.20;;;;;;;16.35;53.63;97957.75;5043905;28;20039;-58
2023/05/03 11:51:20;;;;;;;9.93;6.60;;;;;;;16.34;55.00;97954.22;5042736;28;20575;-58
2023/05/03 11:53:48;;;;;;;12.38;7.25;;;;;;;16.47;55.03;97952.00;5038450;28;20044;-59
2023/05/03 11:56:17;;;;;;;9.75;5.80;;;;;;;16.66;53.43;97944.00;5041580;28;20040;-58
2023/05/03 11:58:51;;;;;;;9.93;6.53;;;;;;;16.80;53.86;97943.44;5046803;28;20041;-59
2023/05/03 12:01:21;;;;;;;8.90;6.20;;;;;;;16.56;55.55;97949.50;5040770;28;20049;-59
2023/05/03 12:03:52;;;;;;;10.05;5.70;;;;;;;16.47;54.34;97947.34;5051610;28;20086;-55
2023/05/03 12:06:19;;;;;;;;;;;;;;;16.56;52.98;97952.25;5039529;28;20041;-58
2023/05/03 12:08:47;;;;;;;8.45;5.78;;;;;;;16.97;52.55;97963.06;5046575;28;19928;-59
2023/05/03 12:11:14;;;;;;;12.20;6.35;;;;;;;17.01;51.86;97953.22;5044645;28;20037;-59
2023/05/03 12:13:43;;;;;;;8.93;5.70;;;;;;;17.08;50.31;97963.03;5046842;28;20048;-58
2023/05/03 12:16:13;;;;;;;9.05;5.65;;;;;;;17.06;49.96;97966.06;5042849;28;20138;-57
2023/05/03 12:18:49;;;;;;;9.60;5.97;;;;;;;17.35;50.20;97946.22;5044919;28;20037;-56
2023/05/03 12:21:22;;;;;;;8.43;5.35;;;;;;;17.62;50.14;97953.16;5048251;28;20123;-58
2023/05/03 12:23:51;;;;;;;8.15;4.63;;;;;;;17.79;49.69;97949.22;5039658;28;20041;-59
2023/05/03 12:26:24;;;;;;;9.45;5.03;;;;;;;18.45;47.44;97954.44;5047651;28;20045;-59
2023/05/03 12:28:51;;;;;;;10.80;5.53;;;;;;;18.44;46.24;97937.19;5038442;28;20037;-57
2023/05/03 12:31:21;;;;;;;7.95;4.38;;;;;;;18.93;45.52;97930.88;5043828;28;20044;-59